createdAt,value
2018-11-03T00:02:21.393Z,13.50
2018-11-03T00:04:49.796Z,13.73
2018-11-03T00:07:18.245Z,13.33
2018-11-03T00:09:46.636Z,13.70
2018-11-03T00:12:15.032Z,13.93
2018-11-03T00:14:43.455Z,13.50
2018-11-03T00:17:11.873Z,13.87
2018-11-03T00:19:40.277Z,13.22
2018-11-03T00:22:09.271Z,13.73
2018-11-03T00:24:38.645Z,14.17
2018-11-03T00:27:07.073Z,14.27
2018-11-03T00:29:35.529Z,13.60
2018-11-03T00:32:04.666Z,13.70
2018-11-03T00:34:33.196Z,14.90
2018-11-03T00:37:01.729Z,14.03
2018-11-03T00:39:30.159Z,13.83
2018-11-03T00:41:58.624Z,13.53
2018-11-03T00:44:27.109Z,14.77
2018-11-03T00:46:55.609Z,15.13
2018-11-03T00:49:24.007Z,15.17
2018-11-03T00:51:52.388Z,15.40
2018-11-03T00:54:20.796Z,14.93
2018-11-03T00:56:49.166Z,15.90
2018-11-03T00:59:17.660Z,15.03
2018-11-03T01:01:46.074Z,15.13
2018-11-03T01:04:14.605Z,14.63
2018-11-03T01:06:43.045Z,14.47
2018-11-03T01:09:11.489Z,15.97
2018-11-03T01:11:39.874Z,15.30
2018-11-03T01:14:08.336Z,15.57
2018-11-03T01:16:36.747Z,14.80
2018-11-03T01:19:05.272Z,14.70
2018-11-03T01:21:33.666Z,15.00
2018-11-03T01:24:02.230Z,14.97
2018-11-03T01:26:30.601Z,14.00
2018-11-03T01:28:59.105Z,13.97
2018-11-03T01:31:27.517Z,14.33
2018-11-03T01:33:56.044Z,14.17
2018-11-03T01:36:24.514Z,14.93
2018-11-03T01:38:53.024Z,14.50
2018-11-03T01:41:21.478Z,14.07
2018-11-03T01:43:49.913Z,14.07
2018-11-03T01:46:18.319Z,14.10
2018-11-03T01:48:46.823Z,13.80
2018-11-03T01:51:15.524Z,14.10
2018-11-03T01:53:43.980Z,14.60
2018-11-03T01:56:12.352Z,14.83
2018-11-03T01:58:40.789Z,13.47
2018-11-03T02:01:09.264Z,14.77
2018-11-03T02:03:37.660Z,13.97
2018-11-03T02:06:06.307Z,14.53
2018-11-03T02:08:34.788Z,13.60
2018-11-03T02:11:03.163Z,13.97
2018-11-03T02:13:31.544Z,13.70
2018-11-03T02:16:00.860Z,15.07
2018-11-03T02:18:29.262Z,13.57
2018-11-03T02:20:57.694Z,14.70
2018-11-03T02:23:26.079Z,14.77
2018-11-03T02:25:54.481Z,13.93
2018-11-03T02:28:22.856Z,13.77
2018-11-03T02:30:51.352Z,14.60
2018-11-03T02:33:19.749Z,14.20
2018-11-03T02:35:48.288Z,14.17
2018-11-03T02:38:16.749Z,15.03
2018-11-03T02:40:45.124Z,14.23
2018-11-03T02:43:13.524Z,13.80
2018-11-03T02:45:41.989Z,14.80
2018-11-03T02:48:10.376Z,14.63
2018-11-03T02:50:38.781Z,15.13
2018-11-03T02:53:07.188Z,15.37
2018-11-03T02:55:35.665Z,15.87
2018-11-03T02:58:04.087Z,16.10
2018-11-03T03:00:32.573Z,16.80
2018-11-03T03:03:01.000Z,16.63
2018-11-03T03:05:29.380Z,16.40
2018-11-03T03:07:57.761Z,15.90
2018-11-03T03:10:26.105Z,16.60
2018-11-03T03:12:54.496Z,15.90
2018-11-03T03:15:22.985Z,17.27
2018-11-03T03:17:51.480Z,16.90
2018-11-03T03:20:19.879Z,16.23
2018-11-03T03:22:48.250Z,17.20
2018-11-03T03:25:16.702Z,17.60
2018-11-03T03:27:45.268Z,16.60
2018-11-03T03:30:13.652Z,16.53
2018-11-03T03:32:42.114Z,16.47
2018-11-03T03:35:10.579Z,16.30
2018-11-03T03:37:39.155Z,17.37
2018-11-03T03:40:08.509Z,16.93
2018-11-03T03:42:36.913Z,16.10
2018-11-03T03:45:06.708Z,16.70
2018-11-03T03:47:35.126Z,17.03
2018-11-03T03:50:03.573Z,16.10
2018-11-03T03:52:32.033Z,16.07
2018-11-03T03:55:00.435Z,17.27
2018-11-03T03:57:28.980Z,16.83
2018-11-03T03:59:57.950Z,16.83
2018-11-03T04:02:26.386Z,17.03
2018-11-03T04:04:54.864Z,16.90
2018-11-03T04:07:23.285Z,16.50
2018-11-03T04:09:51.825Z,16.50
2018-11-03T04:12:20.187Z,16.83
2018-11-03T04:14:48.687Z,16.53
2018-11-03T04:17:17.180Z,16.20
2018-11-03T04:19:45.733Z,16.57
2018-11-03T04:22:14.309Z,16.30
2018-11-03T04:24:42.689Z,16.60
2018-11-03T04:27:11.184Z,16.20
2018-11-03T04:29:39.561Z,16.67
2018-11-03T04:32:07.959Z,16.83
2018-11-03T04:34:36.338Z,17.17
2018-11-03T04:37:04.732Z,16.83
2018-11-03T04:39:33.124Z,18.13
2018-11-03T04:42:01.516Z,16.97
2018-11-03T04:44:29.957Z,18.00
2018-11-03T04:46:58.504Z,18.47
2018-11-03T04:49:26.909Z,19.17
2018-11-03T04:51:55.520Z,18.77
2018-11-03T04:54:23.888Z,18.60
2018-11-03T04:56:52.291Z,18.27
2018-11-03T04:59:20.840Z,19.63
2018-11-03T05:01:49.316Z,19.80
2018-11-03T05:04:17.896Z,18.83
2018-11-03T05:06:46.277Z,19.27
2018-11-03T05:09:14.759Z,19.70
2018-11-03T05:11:43.238Z,19.10
2018-11-03T05:14:11.929Z,19.80
2018-11-03T05:16:40.294Z,18.83
2018-11-03T05:19:09.109Z,18.83
2018-11-03T05:21:37.680Z,19.37
2018-11-03T05:24:06.230Z,19.13
2018-11-03T05:26:34.725Z,18.33
2018-11-03T05:29:03.849Z,18.17
2018-11-03T05:31:32.232Z,19.77
2018-11-03T05:34:01.079Z,20.40
2018-11-03T05:36:29.524Z,20.10
2018-11-03T05:38:57.954Z,20.20
2018-11-03T05:41:26.445Z,20.50
2018-11-03T05:43:54.836Z,19.37
2018-11-03T05:46:23.310Z,20.57
2018-11-03T05:48:52.144Z,20.07
2018-11-03T05:51:20.536Z,19.17
2018-11-03T05:53:48.973Z,20.80
2018-11-03T05:56:17.368Z,19.63
2018-11-03T05:58:45.892Z,19.47
2018-11-03T06:01:14.321Z,19.80
2018-11-03T06:03:43.223Z,18.60
2018-11-03T06:06:11.605Z,19.43
2018-11-03T06:08:40.041Z,18.70
2018-11-03T06:11:08.393Z,20.10
2018-11-03T06:13:36.772Z,18.33
2018-11-03T06:16:05.269Z,19.37
2018-11-03T06:18:33.676Z,19.37
2018-11-03T06:21:02.188Z,19.73
2018-11-03T06:23:30.660Z,19.63
2018-11-03T06:25:59.017Z,19.07
2018-11-03T06:28:27.440Z,18.77
2018-11-03T06:30:55.825Z,17.80
2018-11-03T06:33:24.285Z,18.90
2018-11-03T06:35:52.671Z,19.33
2018-11-03T06:38:21.069Z,18.90
2018-11-03T06:40:49.462Z,18.03
2018-11-03T06:43:18.160Z,19.43
2018-11-03T06:45:53.229Z,20.17
2018-11-03T06:48:21.605Z,19.53
2018-11-03T06:50:49.972Z,19.60
2018-11-03T06:53:18.373Z,19.73
2018-11-03T06:55:46.833Z,19.23
2018-11-03T06:58:15.477Z,19.63
2018-11-03T07:00:43.899Z,19.27
2018-11-03T07:03:12.277Z,19.63
2018-11-03T07:05:40.915Z,20.20
2018-11-03T07:08:09.325Z,20.37
2018-11-03T07:10:37.741Z,21.37
2018-11-03T07:13:06.251Z,21.03
2018-11-03T07:15:35.347Z,23.57
2018-11-03T07:18:03.812Z,21.73
2018-11-03T07:20:32.177Z,21.67
2018-11-03T07:23:00.572Z,24.03
2018-11-03T07:25:28.984Z,20.87
2018-11-03T07:27:57.379Z,18.23
2018-11-03T07:30:25.905Z,18.17
2018-11-03T07:32:54.305Z,17.87
2018-11-03T07:35:22.875Z,16.43
2018-11-03T07:37:51.266Z,15.23
2018-11-03T07:40:19.791Z,14.57
2018-11-03T07:42:48.423Z,13.10
2018-11-03T07:45:16.814Z,12.75
2018-11-03T07:47:45.376Z,12.82
2018-11-03T07:50:13.868Z,12.45
2018-11-03T07:52:42.876Z,11.93
2018-11-03T07:55:12.669Z,11.78
2018-11-03T07:57:41.109Z,12.20
2018-11-03T08:00:11.704Z,12.20
2018-11-03T08:02:40.724Z,11.95
2018-11-03T08:05:10.612Z,11.97
2018-11-03T08:07:39.010Z,13.55
2018-11-03T08:10:09.013Z,12.70
2018-11-03T08:12:37.472Z,11.80
2018-11-03T08:15:07.494Z,11.80
2018-11-03T08:17:35.919Z,13.38
2018-11-03T08:20:04.671Z,12.95
2018-11-03T08:22:32.808Z,12.93
2018-11-03T08:25:00.977Z,13.20
2018-11-03T08:27:29.143Z,12.68
2018-11-03T08:29:57.319Z,12.63
2018-11-03T08:32:25.547Z,12.05
2018-11-03T08:34:53.643Z,13.25
2018-11-03T08:37:21.724Z,12.85
2018-11-03T08:39:49.837Z,13.68
2018-11-03T08:42:17.923Z,13.05
2018-11-03T08:44:46.040Z,13.48
2018-11-03T08:47:14.240Z,12.28
2018-11-03T08:49:42.407Z,13.95
2018-11-03T08:52:10.578Z,12.73
2018-11-03T08:54:38.780Z,14.10
2018-11-03T08:57:06.933Z,14.20
2018-11-03T08:59:35.156Z,13.83
2018-11-03T09:02:03.205Z,14.20
2018-11-03T09:04:31.307Z,14.90
2018-11-03T09:06:59.435Z,15.05
2018-11-03T09:09:27.504Z,15.72
2018-11-03T09:11:55.633Z,15.75
2018-11-03T09:14:23.857Z,15.35
2018-11-03T09:16:52.076Z,16.00
2018-11-03T09:19:20.222Z,16.80
2018-11-03T09:21:48.409Z,17.90
2018-11-03T09:24:16.445Z,18.23
2018-11-03T09:26:44.600Z,18.48
2018-11-03T09:29:12.703Z,17.90
2018-11-03T09:31:40.907Z,17.07
2018-11-03T09:34:09.052Z,16.80
2018-11-03T09:36:37.234Z,15.83
2018-11-03T09:39:07.016Z,17.23
2018-11-03T09:52:38.320Z,15.43
2018-11-03T09:55:07.457Z,14.87
2018-11-03T09:57:35.617Z,13.50
2018-11-03T10:00:03.816Z,15.23
2018-11-03T10:02:32.221Z,14.23
2018-11-03T10:05:00.825Z,13.58
2018-11-03T10:07:29.212Z,13.35
2018-11-03T10:09:57.622Z,12.55
2018-11-03T10:12:26.119Z,12.82
2018-11-03T10:14:54.628Z,10.85
2018-11-03T10:17:23.113Z,11.53
2018-11-03T10:19:51.534Z,11.10
2018-11-03T10:22:19.990Z,10.88
2018-11-03T10:24:48.015Z,10.05
2018-11-03T10:27:16.168Z,9.90
2018-11-03T10:29:44.357Z,10.65
2018-11-03T10:32:12.548Z,9.50
2018-11-03T10:34:40.687Z,9.40
2018-11-03T10:37:08.904Z,7.60
2018-11-03T10:39:37.038Z,7.90
2018-11-03T10:42:05.347Z,7.50
2018-11-03T10:44:33.558Z,7.20
2018-11-03T10:47:01.804Z,7.50
2018-11-03T10:49:29.961Z,6.58
2018-11-03T10:51:58.104Z,5.45
2018-11-03T10:54:26.191Z,5.70
2018-11-03T10:56:54.289Z,6.25
2018-11-03T10:59:22.499Z,5.70
2018-11-03T11:01:56.003Z,3.77
2018-11-03T11:04:29.775Z,2.87
2018-11-03T11:07:03.419Z,1.92
2018-11-03T11:09:37.197Z,4.33
2018-11-03T11:12:10.820Z,4.75
2018-11-03T11:14:38.912Z,4.80
2018-11-03T11:17:07.161Z,4.47
2018-11-03T11:19:35.333Z,3.70
2018-11-03T11:22:03.432Z,4.35
2018-11-03T11:24:31.635Z,4.28
2018-11-03T11:26:59.699Z,4.17
2018-11-03T11:29:27.809Z,3.02
2018-11-03T11:31:56.135Z,2.55
2018-11-03T11:34:24.338Z,2.85
2018-11-03T11:36:52.513Z,3.05
2018-11-03T11:39:20.616Z,3.02
2018-11-03T11:41:49.443Z,2.98
2018-11-03T11:44:17.644Z,3.33
2018-11-03T11:46:46.011Z,3.35
2018-11-03T11:49:14.124Z,3.02
2018-11-03T11:51:42.266Z,2.70
2018-11-03T11:54:10.403Z,2.42
2018-11-03T11:56:38.513Z,2.60
2018-11-03T11:59:06.621Z,2.98
2018-11-03T12:01:34.732Z,2.87
2018-11-03T12:04:02.990Z,2.75
2018-11-03T12:06:31.089Z,2.87
2018-11-03T12:08:59.291Z,3.15
2018-11-03T12:11:27.420Z,2.33
2018-11-03T12:13:55.540Z,2.52
2018-11-03T12:16:23.704Z,2.00
2018-11-03T12:18:51.811Z,2.27
2018-11-03T12:21:19.926Z,2.00
2018-11-03T12:23:48.049Z,1.80
2018-11-03T12:26:16.201Z,2.12
2018-11-03T12:28:44.303Z,2.20
2018-11-03T12:31:12.405Z,2.37
2018-11-03T12:33:40.685Z,2.42
2018-11-03T12:36:08.794Z,2.20
2018-11-03T12:38:37.053Z,2.37
2018-11-03T12:41:05.540Z,2.47
2018-11-03T12:43:33.681Z,2.12
2018-11-03T12:46:01.857Z,2.50
2018-11-03T12:48:29.996Z,2.22
2018-11-03T12:50:58.104Z,2.37
2018-11-03T12:53:26.260Z,2.90
2018-11-03T12:55:54.584Z,2.50
2018-11-03T12:58:22.701Z,2.30
2018-11-03T13:00:50.812Z,3.27
2018-11-03T13:03:18.966Z,2.95
2018-11-03T13:05:47.116Z,2.70
2018-11-03T13:08:15.282Z,2.98
2018-11-03T13:10:43.444Z,2.83
2018-11-03T13:13:11.567Z,2.80
2018-11-03T13:15:39.685Z,2.35
2018-11-03T13:18:07.793Z,2.85
2018-11-03T13:20:35.943Z,2.62
2018-11-03T13:23:04.239Z,3.20
2018-11-03T13:25:32.400Z,3.42
2018-11-03T13:28:00.554Z,3.45
2018-11-03T13:30:28.742Z,3.12
2018-11-03T13:32:56.937Z,3.30
2018-11-03T13:35:25.079Z,4.30
2018-11-03T13:37:53.239Z,3.70
2018-11-03T13:40:21.473Z,3.87
2018-11-03T13:42:49.725Z,3.40
2018-11-03T13:45:17.825Z,3.27
2018-11-03T13:47:45.945Z,3.85
2018-11-03T13:50:15.308Z,3.42
2018-11-03T13:52:44.635Z,3.52
2018-11-03T13:55:12.743Z,3.87
2018-11-03T13:57:41.896Z,3.47
2018-11-03T14:00:13.311Z,3.77
2018-11-03T14:02:42.339Z,4.05
2018-11-03T14:05:11.028Z,4.58
2018-11-03T14:07:39.412Z,4.12
2018-11-03T14:10:08.504Z,3.80
2018-11-03T14:12:36.983Z,4.10
2018-11-03T14:15:05.636Z,3.90
2018-11-03T14:17:33.752Z,4.10
2018-11-03T14:20:01.865Z,4.17
2018-11-03T14:22:30.008Z,5.50
2018-11-03T14:24:58.212Z,5.83
2018-11-03T14:27:26.511Z,5.08
2018-11-03T14:29:54.968Z,5.28
2018-11-03T14:32:23.092Z,5.28
2018-11-03T14:34:51.197Z,4.78
2018-11-03T14:37:19.289Z,5.10
2018-11-03T14:39:47.442Z,4.72
2018-11-03T14:42:15.521Z,4.78
2018-11-03T14:44:43.772Z,4.20
2018-11-03T14:47:11.872Z,4.60
2018-11-03T14:49:39.980Z,4.47
2018-11-03T14:52:08.103Z,4.42
2018-11-03T14:54:36.219Z,4.78
2018-11-03T14:57:04.592Z,4.20
2018-11-03T14:59:32.933Z,4.65
2018-11-03T15:02:01.149Z,4.35
2018-11-03T15:04:29.272Z,4.95
2018-11-03T15:06:57.549Z,5.12
2018-11-03T15:09:25.648Z,5.08
2018-11-03T15:11:53.813Z,5.65
2018-11-03T15:14:22.064Z,5.85
2018-11-03T15:16:50.076Z,6.53
2018-11-03T15:19:18.197Z,5.62
2018-11-03T15:21:46.319Z,6.00
2018-11-03T15:24:15.004Z,5.75
2018-11-03T15:26:43.130Z,5.67
2018-11-03T15:29:11.268Z,6.20
2018-11-03T15:31:39.412Z,5.92
2018-11-03T15:34:07.533Z,5.20
2018-11-03T15:36:35.616Z,5.03
2018-11-03T15:39:04.541Z,6.10
2018-11-03T15:41:32.673Z,6.08
2018-11-03T15:44:00.805Z,7.28
2018-11-03T15:46:28.976Z,7.85
2018-11-03T15:48:57.094Z,7.65
2018-11-03T15:51:25.200Z,8.10
2018-11-03T15:53:53.367Z,7.17
2018-11-03T15:56:21.622Z,6.87
2018-11-03T15:58:49.776Z,6.58
2018-11-03T16:01:18.075Z,6.90
2018-11-03T16:03:46.220Z,6.47
2018-11-03T16:06:14.466Z,5.80
2018-11-03T16:08:42.585Z,5.53
2018-11-03T16:11:10.725Z,6.37
2018-11-03T16:13:38.909Z,5.67
2018-11-03T16:16:07.042Z,6.33
2018-11-03T16:18:35.153Z,6.90
2018-11-03T16:21:03.289Z,6.63
2018-11-03T16:23:31.387Z,7.87
2018-11-03T16:25:59.567Z,7.17
2018-11-03T16:28:27.754Z,7.30
2018-11-03T16:30:55.746Z,7.57
2018-11-03T16:33:23.859Z,9.23
2018-11-03T16:35:51.972Z,8.10
2018-11-03T16:38:20.076Z,8.33
2018-11-03T16:40:48.216Z,8.07
2018-11-03T16:43:16.323Z,8.40
2018-11-03T16:45:44.503Z,7.80
2018-11-03T16:48:12.667Z,9.93
2018-11-03T16:50:40.837Z,8.97
2018-11-03T16:53:08.995Z,8.90
2018-11-03T16:55:37.234Z,9.40
2018-11-03T16:58:05.329Z,9.90
2018-11-03T17:00:33.433Z,9.90
2018-11-03T17:03:01.549Z,9.90
2018-11-03T17:05:29.657Z,9.17
2018-11-03T17:07:57.853Z,10.03
2018-11-03T17:10:26.016Z,9.47
2018-11-03T17:12:54.150Z,9.93
2018-11-03T17:15:22.412Z,10.08
2018-11-03T17:17:50.631Z,11.07
2018-11-03T17:20:18.764Z,12.30
2018-11-03T17:22:46.889Z,13.57
2018-11-03T17:25:15.378Z,13.77
2018-11-03T17:27:43.849Z,13.73
2018-11-03T17:30:15.785Z,13.83
2018-11-03T17:32:44.444Z,11.73
2018-11-03T17:35:12.940Z,12.00
2018-11-03T17:37:41.788Z,12.10
2018-11-03T17:40:11.340Z,12.70
2018-11-03T17:42:39.873Z,16.37
2018-11-03T17:45:09.813Z,11.60
2018-11-03T17:47:38.602Z,11.70
2018-11-03T17:50:08.514Z,11.30
2018-11-03T17:52:37.511Z,11.20
2018-11-03T17:55:06.798Z,11.00
2018-11-03T17:57:35.304Z,10.77
2018-11-03T18:00:04.536Z,10.43
2018-11-03T18:02:33.028Z,10.73
2018-11-03T18:05:01.473Z,11.37
2018-11-03T18:07:29.906Z,11.40
2018-11-03T18:09:58.501Z,11.83
2018-11-03T18:12:27.001Z,11.70
2018-11-03T18:14:55.560Z,11.23
2018-11-03T18:17:24.138Z,11.10
2018-11-03T18:19:52.622Z,12.30
2018-11-03T18:22:21.065Z,11.17
2018-11-03T18:24:49.630Z,11.53
2018-11-03T18:27:18.169Z,11.20
2018-11-03T18:41:37.009Z,11.90
2018-11-03T18:44:05.531Z,11.70
2018-11-03T18:46:35.507Z,11.07
2018-11-03T18:49:04.122Z,11.33
2018-11-03T18:51:32.708Z,11.50
2018-11-03T18:54:01.677Z,11.37
2018-11-03T18:56:30.189Z,11.10
2018-11-03T18:58:58.737Z,10.83
2018-11-03T19:01:27.145Z,12.07
2018-11-03T19:03:55.779Z,12.63
2018-11-03T19:06:24.249Z,11.23
2018-11-03T19:08:52.686Z,11.60
2018-11-03T19:11:21.211Z,12.53
2018-11-03T19:13:49.752Z,11.93
2018-11-03T19:16:18.178Z,12.60
2018-11-03T19:18:46.645Z,12.00
2018-11-03T19:21:15.089Z,12.10
2018-11-03T19:23:43.831Z,12.07
2018-11-03T19:26:12.345Z,11.50
2018-11-03T19:28:40.855Z,13.43
2018-11-03T19:31:09.473Z,11.77
2018-11-03T19:33:37.861Z,12.13
2018-11-03T19:36:07.161Z,12.23
2018-11-03T19:38:35.676Z,12.40
2018-11-03T19:41:04.155Z,13.70
2018-11-03T19:43:32.628Z,12.70
2018-11-03T19:46:01.252Z,12.77
2018-11-03T19:48:29.642Z,12.73
2018-11-03T19:50:58.322Z,13.30
2018-11-03T19:53:26.901Z,13.10
2018-11-03T19:55:55.492Z,13.90
2018-11-03T19:58:23.948Z,14.10
2018-11-03T20:00:52.368Z,14.20
2018-11-03T20:03:20.919Z,13.97
2018-11-03T20:05:49.364Z,13.70
2018-11-03T20:08:17.892Z,13.57
2018-11-03T20:10:46.432Z,14.07
2018-11-03T20:13:14.853Z,15.57
2018-11-03T20:15:43.306Z,15.10
2018-11-03T20:18:11.805Z,15.00
2018-11-03T20:20:40.384Z,15.97
2018-11-03T20:23:08.868Z,15.90
2018-11-03T20:25:37.412Z,14.97
2018-11-03T20:28:06.138Z,16.03
2018-11-03T20:30:34.622Z,16.77
2018-11-03T20:33:03.223Z,16.30
2018-11-03T20:35:31.785Z,16.63
2018-11-03T20:38:00.494Z,16.03
2018-11-03T20:40:28.880Z,17.13
2018-11-03T20:42:57.539Z,17.13
2018-11-03T20:45:26.061Z,15.90
2018-11-03T20:47:54.510Z,15.70
2018-11-03T20:50:22.926Z,17.50
2018-11-03T20:52:51.449Z,16.37
2018-11-03T20:55:20.019Z,15.83
2018-11-03T20:57:48.557Z,17.10
2018-11-03T21:00:17.074Z,15.33
2018-11-03T21:02:46.653Z,15.83
2018-11-03T21:05:15.087Z,16.10
2018-11-03T21:07:44.220Z,16.43
2018-11-03T21:10:12.650Z,17.93
2018-11-03T21:12:41.797Z,17.17
2018-11-03T21:15:10.356Z,17.67
2018-11-03T21:17:39.741Z,18.13
2018-11-03T21:20:08.448Z,17.07
2018-11-03T21:22:36.887Z,18.80
2018-11-03T21:25:05.812Z,19.63
2018-11-03T21:27:34.311Z,20.03
2018-11-03T21:30:03.033Z,21.40
2018-11-03T21:32:31.635Z,18.73
2018-11-03T21:35:00.145Z,18.83
2018-11-03T21:37:28.572Z,19.37
2018-11-03T21:39:57.253Z,18.40
2018-11-03T21:42:25.839Z,19.03
2018-11-03T21:44:54.259Z,18.80
2018-11-03T21:47:22.769Z,19.20
2018-11-03T21:49:51.341Z,18.30
2018-11-03T21:52:19.911Z,18.27
2018-11-03T21:54:48.409Z,18.43
2018-11-03T21:57:16.989Z,17.80
2018-11-03T21:59:45.380Z,18.43
2018-11-03T22:02:14.834Z,18.93
2018-11-03T22:04:43.257Z,18.63
2018-11-03T22:07:12.184Z,18.63
2018-11-03T22:09:40.781Z,17.40
2018-11-03T22:12:09.296Z,18.40
2018-11-03T22:14:37.800Z,18.90
2018-11-03T22:17:06.377Z,20.17
2018-11-03T22:19:41.708Z,21.77
2018-11-03T22:22:10.159Z,20.60
2018-11-03T22:24:38.668Z,19.97
2018-11-03T22:27:07.128Z,20.17
2018-11-03T22:29:35.652Z,21.63
2018-11-03T22:32:04.316Z,21.03
2018-11-03T22:34:32.705Z,20.87
2018-11-03T22:37:01.250Z,21.03
2018-11-03T22:39:29.665Z,22.13
2018-11-03T22:41:58.116Z,21.70
2018-11-03T22:44:26.701Z,22.70
2018-11-03T22:46:55.107Z,22.50
2018-11-03T22:49:23.529Z,21.53
2018-11-03T22:51:52.075Z,22.33
2018-11-03T22:54:20.520Z,22.63
2018-11-03T22:56:48.951Z,21.87
2018-11-03T22:59:17.382Z,22.03
2018-11-03T23:01:46.305Z,21.83
2018-11-03T23:04:14.746Z,20.17
2018-11-03T23:06:43.179Z,22.63
2018-11-03T23:09:12.231Z,21.37
2018-11-03T23:11:40.618Z,19.37
2018-11-03T23:14:09.017Z,21.07
2018-11-03T23:16:37.448Z,20.43
2018-11-03T23:19:05.888Z,20.07
2018-11-03T23:21:34.401Z,19.93
2018-11-03T23:24:02.987Z,19.57
2018-11-03T23:26:31.579Z,19.67
2018-11-03T23:28:59.974Z,20.40
2018-11-03T23:31:28.420Z,19.73
2018-11-03T23:33:56.808Z,20.40
2018-11-03T23:36:25.341Z,19.70
2018-11-03T23:38:53.737Z,21.17
2018-11-03T23:41:22.521Z,20.23
2018-11-03T23:43:51.452Z,20.77
2018-11-03T23:46:20.064Z,19.90
2018-11-03T23:48:48.545Z,20.57
2018-11-03T23:51:16.951Z,19.77
2018-11-03T23:53:45.475Z,19.60
2018-11-03T23:56:13.894Z,20.17
2018-11-03T23:58:42.341Z,19.70
